sensor_id;sensor_type;location;lat;lon;timestamp;pressure;altitude;pressure_sealevel;temperature;humidity
67457;BME280;54319;52.038;4.640;2023-02-03T00:01:03;102668.31;;;8.14;86.32
67457;BME280;54319;52.038;4.640;2023-02-03T00:03:32;102693.47;;;8.16;86.31
67457;BME280;54319;52.038;4.640;2023-02-03T00:05:59;102587.34;;;7.52;85.95
67457;BME280;54319;52.038;4.640;2023-02-03T00:08:27;102666.81;;;8.02;85.95
67457;BME280;54319;52.038;4.640;2023-02-03T00:10:53;102585.63;;;7.51;85.94
67457;BME280;54319;52.038;4.640;2023-02-03T00:13:21;102687.91;;;8.18;86.15
67457;BME280;54319;52.038;4.640;2023-02-03T00:15:50;102475.28;;;6.94;85.67
67457;BME280;54319;52.038;4.640;2023-02-03T00:18:17;102562.50;;;7.47;85.77
67457;BME280;54319;52.038;4.640;2023-02-03T00:20:45;102611.63;;;7.63;85.73
67457;BME280;54319;52.038;4.640;2023-02-03T00:23:12;102690.66;;;8.08;85.85
67457;BME280;54319;52.038;4.640;2023-02-03T00:25:39;102593.66;;;7.52;85.66
67457;BME280;54319;52.038;4.640;2023-02-03T00:28:06;102686.94;;;8.09;85.56
67457;BME280;54319;52.038;4.640;2023-02-03T00:30:34;102692.38;;;8.09;85.78
67457;BME280;54319;52.038;4.640;2023-02-03T00:33:01;102688.78;;;8.08;85.83
67457;BME280;54319;52.038;4.640;2023-02-03T00:35:29;102693.13;;;8.01;85.56
67457;BME280;54319;52.038;4.640;2023-02-03T00:37:58;102696.50;;;8.13;85.34
67457;BME280;54319;52.038;4.640;2023-02-03T00:40:25;102605.22;;;7.55;84.98
67457;BME280;54319;52.038;4.640;2023-02-03T00:42:54;102654.47;;;7.79;85.10
67457;BME280;54319;52.038;4.640;2023-02-03T00:45:21;102608.78;;;7.55;85.26
67457;BME280;54319;52.038;4.640;2023-02-03T00:47:47;102659.00;;;7.89;85.05
67457;BME280;54319;52.038;4.640;2023-02-03T00:50:15;102715.53;;;8.13;85.34
67457;BME280;54319;52.038;4.640;2023-02-03T00:52:42;102697.50;;;8.12;85.73
67457;BME280;54319;52.038;4.640;2023-02-03T00:55:10;102669.53;;;8.02;85.42
67457;BME280;54319;52.038;4.640;2023-02-03T00:57:37;102692.06;;;8.12;85.92
67457;BME280;54319;52.038;4.640;2023-02-03T01:00:05;102683.50;;;8.07;85.80
67457;BME280;54319;52.038;4.640;2023-02-03T01:02:32;102686.47;;;8.14;85.71
67457;BME280;54319;52.038;4.640;2023-02-03T01:04:59;102685.63;;;8.13;85.92
67457;BME280;54319;52.038;4.640;2023-02-03T01:07:25;102675.38;;;8.07;85.97
67457;BME280;54319;52.038;4.640;2023-02-03T01:09:53;102673.03;;;8.12;86.11
67457;BME280;54319;52.038;4.640;2023-02-03T01:12:21;102650.38;;;7.93;86.09
67457;BME280;54319;52.038;4.640;2023-02-03T01:14:48;102690.94;;;8.15;85.69
67457;BME280;54319;52.038;4.640;2023-02-03T01:17:15;102695.34;;;8.16;85.65
67457;BME280;54319;52.038;4.640;2023-02-03T01:19:41;102679.59;;;8.19;85.20
67457;BME280;54319;52.038;4.640;2023-02-03T01:22:08;102689.31;;;8.22;85.16
67457;BME280;54319;52.038;4.640;2023-02-03T01:24:35;102702.03;;;8.21;85.03
67457;BME280;54319;52.038;4.640;2023-02-03T01:27:02;102702.03;;;8.21;84.69
67457;BME280;54319;52.038;4.640;2023-02-03T01:29:31;102662.91;;;8.04;84.66
67457;BME280;54319;52.038;4.640;2023-02-03T01:31:58;102665.94;;;8.29;83.62
67457;BME280;54319;52.038;4.640;2023-02-03T01:34:25;102644.59;;;8.34;83.32
67457;BME280;54319;52.038;4.640;2023-02-03T01:36:53;102634.72;;;8.33;83.15
67457;BME280;54319;52.038;4.640;2023-02-03T01:39:20;102646.69;;;8.40;82.80
67457;BME280;54319;52.038;4.640;2023-02-03T01:41:46;102646.84;;;8.39;82.76
67457;BME280;54319;52.038;4.640;2023-02-03T01:44:43;102644.97;;;8.39;82.65
67457;BME280;54319;52.038;4.640;2023-02-03T01:47:22;102657.41;;;8.42;82.19
67457;BME280;54319;52.038;4.640;2023-02-03T01:49:55;102656.09;;;8.46;82.19
67457;BME280;54319;52.038;4.640;2023-02-03T01:52:23;102622.03;;;8.24;81.78
67457;BME280;54319;52.038;4.640;2023-02-03T01:54:52;102666.72;;;8.49;81.96
67457;BME280;54319;52.038;4.640;2023-02-03T01:57:23;102645.13;;;8.38;81.62
67457;BME280;54319;52.038;4.640;2023-02-03T01:59:55;102658.25;;;8.52;81.19
67457;BME280;54319;52.038;4.640;2023-02-03T02:02:23;102653.44;;;8.64;80.54
67457;BME280;54319;52.038;4.640;2023-02-03T02:04:55;102648.50;;;8.68;80.67
67457;BME280;54319;52.038;4.640;2023-02-03T02:07:24;102640.03;;;8.71;80.47
67457;BME280;54319;52.038;4.640;2023-02-03T02:09:52;102624.19;;;8.66;80.21
67457;BME280;54319;52.038;4.640;2023-02-03T02:12:19;102630.72;;;8.74;80.15
67457;BME280;54319;52.038;4.640;2023-02-03T02:14:47;102611.84;;;8.72;79.76
67457;BME280;54319;52.038;4.640;2023-02-03T02:17:27;102622.31;;;8.85;79.39
67457;BME280;54319;52.038;4.640;2023-02-03T02:20:28;102609.72;;;8.84;78.98
67457;BME280;54319;52.038;4.640;2023-02-03T02:23:08;102606.84;;;8.86;79.15
67457;BME280;54319;52.038;4.640;2023-02-03T02:25:55;102611.41;;;8.85;79.39
67457;BME280;54319;52.038;4.640;2023-02-03T02:28:45;102603.75;;;8.80;79.42
67457;BME280;54319;52.038;4.640;2023-02-03T02:31:48;102623.31;;;8.84;79.30
67457;BME280;54319;52.038;4.640;2023-02-03T02:34:21;102610.22;;;8.79;79.27
67457;BME280;54319;52.038;4.640;2023-02-03T02:36:59;102639.66;;;8.84;79.80
67457;BME280;54319;52.038;4.640;2023-02-03T02:39:37;102651.88;;;8.80;80.26
67457;BME280;54319;52.038;4.640;2023-02-03T02:42:05;102647.59;;;8.77;80.32
67457;BME280;54319;52.038;4.640;2023-02-03T02:44:37;102649.63;;;8.75;80.51
67457;BME280;54319;52.038;4.640;2023-02-03T02:47:09;102645.19;;;8.74;80.65
67457;BME280;54319;52.038;4.640;2023-02-03T02:49:43;102618.19;;;8.63;80.81
67457;BME280;54319;52.038;4.640;2023-02-03T02:52:14;102635.59;;;8.70;80.79
67457;BME280;54319;52.038;4.640;2023-02-03T02:54:47;102634.59;;;8.71;81.01
67457;BME280;54319;52.038;4.640;2023-02-03T02:57:17;102633.63;;;8.72;80.96
67457;BME280;54319;52.038;4.640;2023-02-03T02:59:46;102616.81;;;8.59;81.00
67457;BME280;54319;52.038;4.640;2023-02-03T03:02:14;102625.28;;;8.74;80.73
67457;BME280;54319;52.038;4.640;2023-02-03T03:04:44;102613.56;;;8.73;80.47
67457;BME280;54319;52.038;4.640;2023-02-03T03:07:15;102593.88;;;8.79;80.03
67457;BME280;54319;52.038;4.640;2023-02-03T03:09:47;102593.19;;;8.77;80.24
67457;BME280;54319;52.038;4.640;2023-02-03T03:12:18;102583.38;;;8.85;79.50
67457;BME280;54319;52.038;4.640;2023-02-03T03:14:51;102548.84;;;8.49;79.66
67457;BME280;54319;52.038;4.640;2023-02-03T03:17:24;102601.56;;;8.84;79.51
67457;BME280;54319;52.038;4.640;2023-02-03T03:19:54;102595.50;;;8.90;79.20
67457;BME280;54319;52.038;4.640;2023-02-03T03:22:25;102596.34;;;8.91;79.02
67457;BME280;54319;52.038;4.640;2023-02-03T03:24:57;102613.53;;;8.91;79.29
67457;BME280;54319;52.038;4.640;2023-02-03T03:27:29;102620.19;;;8.97;78.71
67457;BME280;54319;52.038;4.640;2023-02-03T03:30:01;102610.19;;;8.97;78.62
67457;BME280;54319;52.038;4.640;2023-02-03T03:32:30;102603.03;;;8.96;78.68
67457;BME280;54319;52.038;4.640;2023-02-03T03:34:58;102612.91;;;8.97;78.80
67457;BME280;54319;52.038;4.640;2023-02-03T03:37:29;102615.63;;;8.97;78.71
67457;BME280;54319;52.038;4.640;2023-02-03T03:39:58;102616.47;;;8.98;79.09
67457;BME280;54319;52.038;4.640;2023-02-03T03:42:28;102632.28;;;8.94;78.83
67457;BME280;54319;52.038;4.640;2023-02-03T03:45:01;102614.06;;;8.95;79.02
67457;BME280;54319;52.038;4.640;2023-02-03T03:47:35;102618.66;;;8.94;79.14
67457;BME280;54319;52.038;4.640;2023-02-03T03:50:08;102626.97;;;8.93;79.05
67457;BME280;54319;52.038;4.640;2023-02-03T03:52:36;102614.47;;;8.82;79.58
67457;BME280;54319;52.038;4.640;2023-02-03T03:55:07;102568.34;;;8.54;79.33
67457;BME280;54319;52.038;4.640;2023-02-03T03:57:38;102628.88;;;8.92;79.51
67457;BME280;54319;52.038;4.640;2023-02-03T04:00:08;102605.47;;;8.81;79.26
67457;BME280;54319;52.038;4.640;2023-02-03T04:02:39;102622.72;;;8.90;79.42
67457;BME280;54319;52.038;4.640;2023-02-03T04:05:08;102616.03;;;8.85;79.70
67457;BME280;54319;52.038;4.640;2023-02-03T04:07:41;102628.16;;;8.90;79.47
67457;BME280;54319;52.038;4.640;2023-02-03T04:10:17;102622.53;;;8.92;79.60
67457;BME280;54319;52.038;4.640;2023-02-03T04:12:44;102628.16;;;8.90;79.62
67457;BME280;54319;52.038;4.640;2023-02-03T04:15:11;102625.72;;;8.87;79.50
67457;BME280;54319;52.038;4.640;2023-02-03T04:17:39;102635.47;;;8.90;79.94
67457;BME280;54319;52.038;4.640;2023-02-03T04:20:07;102630.78;;;8.82;79.92
67457;BME280;54319;52.038;4.640;2023-02-03T04:22:34;102650.09;;;8.89;80.08
67457;BME280;54319;52.038;4.640;2023-02-03T04:25:01;102627.22;;;8.81;80.19
67457;BME280;54319;52.038;4.640;2023-02-03T04:27:28;102620.28;;;8.87;79.86
67457;BME280;54319;52.038;4.640;2023-02-03T04:29:55;102615.72;;;8.88;80.04
67457;BME280;54319;52.038;4.640;2023-02-03T04:32:21;102616.09;;;8.93;79.33
67457;BME280;54319;52.038;4.640;2023-02-03T04:34:50;102626.13;;;8.92;79.64
67457;BME280;54319;52.038;4.640;2023-02-03T04:37:17;102618.06;;;8.82;79.43
67457;BME280;54319;52.038;4.640;2023-02-03T04:39:45;102615.00;;;8.86;79.63
67457;BME280;54319;52.038;4.640;2023-02-03T04:42:11;102622.31;;;8.85;79.82
67457;BME280;54319;52.038;4.640;2023-02-03T04:44:39;102615.34;;;8.82;79.80
67457;BME280;54319;52.038;4.640;2023-02-03T04:47:05;102621.28;;;8.86;79.62
67457;BME280;54319;52.038;4.640;2023-02-03T04:49:32;102615.84;;;8.86;79.22
67457;BME280;54319;52.038;4.640;2023-02-03T04:52:00;102630.78;;;9.00;78.54
67457;BME280;54319;52.038;4.640;2023-02-03T04:54:28;102642.34;;;9.02;79.00
67457;BME280;54319;52.038;4.640;2023-02-03T04:56:54;102632.81;;;8.98;79.09
67457;BME280;54319;52.038;4.640;2023-02-03T04:59:21;102632.47;;;9.01;78.56
67457;BME280;54319;52.038;4.640;2023-02-03T05:01:49;102634.50;;;8.99;79.06
67457;BME280;54319;52.038;4.640;2023-02-03T05:04:17;102628.88;;;8.92;79.17
67457;BME280;54319;52.038;4.640;2023-02-03T05:06:43;102631.41;;;8.94;79.47
67457;BME280;54319;52.038;4.640;2023-02-03T05:09:12;102632.59;;;8.91;79.20
67457;BME280;54319;52.038;4.640;2023-02-03T05:11:38;102631.41;;;8.94;79.60
67457;BME280;54319;52.038;4.640;2023-02-03T05:14:06;102614.00;;;8.87;79.25
67457;BME280;54319;52.038;4.640;2023-02-03T05:16:32;102639.75;;;8.92;79.50
67457;BME280;54319;52.038;4.640;2023-02-03T05:19:00;102626.44;;;8.89;79.61
67457;BME280;54319;52.038;4.640;2023-02-03T05:21:26;102638.31;;;8.88;79.38
67457;BME280;54319;52.038;4.640;2023-02-03T05:23:54;102642.22;;;8.86;79.88
67457;BME280;54319;52.038;4.640;2023-02-03T05:26:22;102644.09;;;8.85;79.94
67457;BME280;54319;52.038;4.640;2023-02-03T05:28:49;102623.81;;;8.79;79.84
67457;BME280;54319;52.038;4.640;2023-02-03T05:31:16;102632.34;;;8.85;80.08
67457;BME280;54319;52.038;4.640;2023-02-03T05:33:43;102624.66;;;8.80;80.21
67457;BME280;54319;52.038;4.640;2023-02-03T05:36:09;102617.88;;;8.84;80.27
67457;BME280;54319;52.038;4.640;2023-02-03T05:38:36;102628.88;;;8.74;80.31
67457;BME280;54319;52.038;4.640;2023-02-03T05:41:03;102624.13;;;8.76;80.64
67457;BME280;54319;52.038;4.640;2023-02-03T05:43:51;102640.78;;;8.73;80.80
67457;BME280;54319;52.038;4.640;2023-02-03T05:46:17;102630.03;;;8.72;81.18
67457;BME280;54319;52.038;4.640;2023-02-03T05:48:44;102619.28;;;8.70;80.97
67457;BME280;54319;52.038;4.640;2023-02-03T05:51:11;102624.91;;;8.68;80.97
67457;BME280;54319;52.038;4.640;2023-02-03T05:53:38;102621.00;;;8.71;81.19
67457;BME280;54319;52.038;4.640;2023-02-03T05:56:06;102622.00;;;8.70;81.15
67457;BME280;54319;52.038;4.640;2023-02-03T05:58:34;102626.44;;;8.71;81.15
67457;BME280;54319;52.038;4.640;2023-02-03T06:01:02;102641.78;;;8.72;81.33
67457;BME280;54319;52.038;4.640;2023-02-03T06:03:29;102635.31;;;8.73;81.32
67457;BME280;54319;52.038;4.640;2023-02-03T06:05:56;102633.63;;;8.72;81.31
67457;BME280;54319;52.038;4.640;2023-02-03T06:08:23;102631.81;;;8.63;81.25
67457;BME280;54319;52.038;4.640;2023-02-03T06:10:56;102644.63;;;8.71;81.13
67457;BME280;54319;52.038;4.640;2023-02-03T06:13:24;102634.91;;;8.68;81.46
67457;BME280;54319;52.038;4.640;2023-02-03T06:15:50;102631.88;;;8.71;81.36
67457;BME280;54319;52.038;4.640;2023-02-03T06:18:19;102658.56;;;8.67;81.62
67457;BME280;54319;52.038;4.640;2023-02-03T06:20:46;102654.28;;;8.65;81.54
67457;BME280;54319;52.038;4.640;2023-02-03T06:23:13;102628.25;;;8.62;81.81
67457;BME280;54319;52.038;4.640;2023-02-03T06:25:41;102636.53;;;8.61;81.91
67457;BME280;54319;52.038;4.640;2023-02-03T06:28:08;102623.44;;;8.56;82.08
67457;BME280;54319;52.038;4.640;2023-02-03T06:30:35;102634.63;;;8.53;82.22
67457;BME280;54319;52.038;4.640;2023-02-03T06:33:02;102640.34;;;8.50;82.71
67457;BME280;54319;52.038;4.640;2023-02-03T06:35:30;102643.34;;;8.47;82.67
67457;BME280;54319;52.038;4.640;2023-02-03T06:37:57;102642.81;;;8.43;82.94
67457;BME280;54319;52.038;4.640;2023-02-03T06:40:25;102646.94;;;8.47;82.83
67457;BME280;54319;52.038;4.640;2023-02-03T06:42:52;102638.91;;;8.46;82.76
67457;BME280;54319;52.038;4.640;2023-02-03T06:45:20;102646.94;;;8.47;83.09
67457;BME280;54319;52.038;4.640;2023-02-03T06:47:48;102660.53;;;8.47;83.24
67457;BME280;54319;52.038;4.640;2023-02-03T06:50:15;102666.81;;;8.48;83.25
67457;BME280;54319;52.038;4.640;2023-02-03T06:52:43;102681.84;;;8.52;83.31
67457;BME280;54319;52.038;4.640;2023-02-03T06:55:10;102676.97;;;8.56;83.15
67457;BME280;54319;52.038;4.640;2023-02-03T06:57:42;102701.44;;;8.56;83.03
67457;BME280;54319;52.038;4.640;2023-02-03T07:00:11;102689.25;;;8.60;83.24
67457;BME280;54319;52.038;4.640;2023-02-03T07:02:38;102700.22;;;8.68;83.13
67457;BME280;54319;52.038;4.640;2023-02-03T07:05:06;102687.94;;;8.64;83.04
67457;BME280;54319;52.038;4.640;2023-02-03T07:07:33;102695.94;;;8.65;83.06
67457;BME280;54319;52.038;4.640;2023-02-03T07:10:01;102688.63;;;8.66;83.05
67457;BME280;54319;52.038;4.640;2023-02-03T07:12:28;102687.22;;;8.62;83.04
67457;BME280;54319;52.038;4.640;2023-02-03T07:14:55;102685.59;;;8.69;82.86
67457;BME280;54319;52.038;4.640;2023-02-03T07:17:22;102699.75;;;8.73;82.73
67457;BME280;54319;52.038;4.640;2023-02-03T07:19:49;102698.38;;;8.68;82.77
67457;BME280;54319;52.038;4.640;2023-02-03T07:22:15;102706.06;;;8.73;83.11
67457;BME280;54319;52.038;4.640;2023-02-03T07:24:43;102712.75;;;8.79;82.63
67457;BME280;54319;52.038;4.640;2023-02-03T07:27:11;102703.19;;;8.75;82.94
67457;BME280;54319;52.038;4.640;2023-02-03T07:29:38;102691.03;;;8.69;83.20
67457;BME280;54319;52.038;4.640;2023-02-03T07:32:05;102703.50;;;8.72;83.03
67457;BME280;54319;52.038;4.640;2023-02-03T07:34:32;102700.53;;;8.65;82.98
67457;BME280;54319;52.038;4.640;2023-02-03T07:36:59;102703.19;;;8.75;82.90
67457;BME280;54319;52.038;4.640;2023-02-03T07:39:27;102697.81;;;8.83;82.45
67457;BME280;54319;52.038;4.640;2023-02-03T07:41:54;102684.84;;;8.77;82.38
67457;BME280;54319;52.038;4.640;2023-02-03T07:44:24;102695.09;;;8.83;82.72
67457;BME280;54319;52.038;4.640;2023-02-03T07:46:50;102690.84;;;8.80;82.76
67457;BME280;54319;52.038;4.640;2023-02-03T07:49:17;102713.13;;;8.84;82.68
67457;BME280;54319;52.038;4.640;2023-02-03T07:51:44;102702.25;;;8.84;82.81
67457;BME280;54319;52.038;4.640;2023-02-03T07:54:11;102707.16;;;8.80;83.05
67457;BME280;54319;52.038;4.640;2023-02-03T07:56:39;102674.31;;;8.64;82.73
67457;BME280;54319;52.038;4.640;2023-02-03T07:59:07;102717.56;;;8.85;82.87
67457;BME280;54319;52.038;4.640;2023-02-03T08:01:35;102697.19;;;8.71;82.33
67457;BME280;54319;52.038;4.640;2023-02-03T08:04:03;102715.84;;;8.84;82.68
67457;BME280;54319;52.038;4.640;2023-02-03T08:06:30;102729.47;;;8.84;82.86
67457;BME280;54319;52.038;4.640;2023-02-03T08:08:57;102727.13;;;8.89;82.53
67457;BME280;54319;52.038;4.640;2023-02-03T08:11:24;102731.97;;;8.95;82.34
67457;BME280;54319;52.038;4.640;2023-02-03T08:13:51;102716.16;;;8.99;82.11
67457;BME280;54319;52.038;4.640;2023-02-03T08:16:18;102725.03;;;9.01;82.03
67457;BME280;54319;52.038;4.640;2023-02-03T08:18:46;102726.75;;;9.02;82.20
67457;BME280;54319;52.038;4.640;2023-02-03T08:21:13;102749.16;;;9.14;81.62
67457;BME280;54319;52.038;4.640;2023-02-03T08:23:40;102765.34;;;9.16;81.34
67457;BME280;54319;52.038;4.640;2023-02-03T08:26:07;102751.56;;;9.17;81.65
67457;BME280;54319;52.038;4.640;2023-02-03T08:28:35;102757.31;;;9.14;81.65
67457;BME280;54319;52.038;4.640;2023-02-03T08:31:08;102750.72;;;9.17;81.58
67457;BME280;54319;52.038;4.640;2023-02-03T08:33:35;102735.63;;;9.04;81.54
67457;BME280;54319;52.038;4.640;2023-02-03T08:36:04;102746.28;;;9.16;81.08
67457;BME280;54319;52.038;4.640;2023-02-03T08:38:31;102750.25;;;9.21;81.01
67457;BME280;54319;52.038;4.640;2023-02-03T08:40:58;102744.97;;;9.20;81.38
67457;BME280;54319;52.038;4.640;2023-02-03T08:43:26;102748.69;;;9.19;81.24
67457;BME280;54319;52.038;4.640;2023-02-03T08:45:52;102761.63;;;9.17;81.46
67457;BME280;54319;52.038;4.640;2023-02-03T08:48:19;102764.72;;;9.22;81.61
67457;BME280;54319;52.038;4.640;2023-02-03T08:50:46;102763.34;;;9.18;81.54
67457;BME280;54319;52.038;4.640;2023-02-03T08:53:18;102761.00;;;9.23;81.38
67457;BME280;54319;52.038;4.640;2023-02-03T08:55:45;102733.38;;;9.18;81.64
67457;BME280;54319;52.038;4.640;2023-02-03T08:58:12;102751.81;;;9.24;81.35
67457;BME280;54319;52.038;4.640;2023-02-03T09:00:38;102777.84;;;9.26;81.23
67457;BME280;54319;52.038;4.640;2023-02-03T09:03:06;102771.25;;;9.29;81.26
67457;BME280;54319;52.038;4.640;2023-02-03T09:05:33;102782.06;;;9.39;80.73
67457;BME280;54319;52.038;4.640;2023-02-03T09:08:00;102781.59;;;9.44;80.70
67457;BME280;54319;52.038;4.640;2023-02-03T09:10:28;102783.63;;;9.41;80.64
67457;BME280;54319;52.038;4.640;2023-02-03T09:12:55;102784.16;;;9.45;80.30
67457;BME280;54319;52.038;4.640;2023-02-03T09:15:22;102788.06;;;9.43;80.71
67457;BME280;54319;52.038;4.640;2023-02-03T09:17:49;102797.22;;;9.41;81.04
67457;BME280;54319;52.038;4.640;2023-02-03T09:20:18;102802.91;;;9.48;80.60
67457;BME280;54319;52.038;4.640;2023-02-03T09:22:44;102791.47;;;9.45;80.96
67457;BME280;54319;52.038;4.640;2023-02-03T09:25:12;102790.63;;;9.44;81.11
67457;BME280;54319;52.038;4.640;2023-02-03T09:27:43;102797.94;;;9.44;80.98
67457;BME280;54319;52.038;4.640;2023-02-03T09:30:10;102795.53;;;9.40;80.94
67457;BME280;54319;52.038;4.640;2023-02-03T09:32:38;102807.34;;;9.49;80.86
67457;BME280;54319;52.038;4.640;2023-02-03T09:35:06;102806.03;;;9.53;80.59
67457;BME280;54319;52.038;4.640;2023-02-03T09:37:32;102811.41;;;9.63;80.17
67457;BME280;54319;52.038;4.640;2023-02-03T09:40:00;102811.94;;;9.67;80.25
67457;BME280;54319;52.038;4.640;2023-02-03T09:42:50;102815.66;;;9.66;80.43
67457;BME280;54319;52.038;4.640;2023-02-03T09:45:24;102806.69;;;9.74;80.07
67457;BME280;54319;52.038;4.640;2023-02-03T09:47:52;102806.38;;;9.77;79.85
67457;BME280;54319;52.038;4.640;2023-02-03T09:50:22;102807.78;;;9.81;79.20
67457;BME280;54319;52.038;4.640;2023-02-03T09:52:50;102809.75;;;9.97;78.89
67457;BME280;54319;52.038;4.640;2023-02-03T09:55:32;102818.22;;;10.12;78.16
67457;BME280;54319;52.038;4.640;2023-02-03T09:58:04;102779.63;;;9.98;77.64
67457;BME280;54319;52.038;4.640;2023-02-03T10:00:35;102813.13;;;10.17;77.53
67457;BME280;54319;52.038;4.640;2023-02-03T10:03:07;102832.22;;;10.17;77.71
67457;BME280;54319;52.038;4.640;2023-02-03T10:08:42;102842.88;;;10.28;77.45
67457;BME280;54319;52.038;4.640;2023-02-03T10:11:24;102842.13;;;10.18;78.13
67457;BME280;54319;52.038;4.640;2023-02-03T10:14:07;102834.00;;;10.26;77.60
67457;BME280;54319;52.038;4.640;2023-02-03T10:16:48;102842.00;;;10.28;77.33
67457;BME280;54319;52.038;4.640;2023-02-03T10:19:23;102840.34;;;10.35;76.96
67457;BME280;54319;52.038;4.640;2023-02-03T10:21:56;102839.66;;;10.33;76.73
67457;BME280;54319;52.038;4.640;2023-02-03T10:24:28;102858.94;;;10.32;77.27
67457;BME280;54319;52.038;4.640;2023-02-03T10:27:00;102848.16;;;10.30;77.34
67457;BME280;54319;52.038;4.640;2023-02-03T10:29:34;102853.47;;;10.32;77.26
67457;BME280;54319;52.038;4.640;2023-02-03T10:32:06;102851.94;;;10.37;77.01
67457;BME280;54319;52.038;4.640;2023-02-03T10:34:35;102855.88;;;10.35;77.30
67457;BME280;54319;52.038;4.640;2023-02-03T10:37:07;102842.00;;;10.28;76.82
67457;BME280;54319;52.038;4.640;2023-02-03T10:39:42;102859.38;;;10.45;76.87
67457;BME280;54319;52.038;4.640;2023-02-03T10:42:11;102865.69;;;10.46;77.09
67457;BME280;54319;52.038;4.640;2023-02-03T10:44:43;102877.47;;;10.46;76.60
67457;BME280;54319;52.038;4.640;2023-02-03T10:47:19;102866.25;;;10.57;76.53
67457;BME280;54319;52.038;4.640;2023-02-03T10:49:49;102873.59;;;10.57;76.30
67457;BME280;54319;52.038;4.640;2023-02-03T10:52:25;102879.28;;;10.64;76.59
67457;BME280;54319;52.038;4.640;2023-02-03T10:54:53;102875.41;;;10.48;76.52
67457;BME280;54319;52.038;4.640;2023-02-03T10:57:20;102876.69;;;10.62;76.16
67457;BME280;54319;52.038;4.640;2023-02-03T10:59:51;102886.44;;;10.65;76.19
67457;BME280;54319;52.038;4.640;2023-02-03T11:02:22;102862.31;;;10.52;75.92
67457;BME280;54319;52.038;4.640;2023-02-03T11:05:09;102890.91;;;10.74;75.87
67457;BME280;54319;52.038;4.640;2023-02-03T11:07:36;102885.44;;;10.66;75.88
67457;BME280;54319;52.038;4.640;2023-02-03T11:10:28;102876.91;;;10.69;76.30
67457;BME280;54319;52.038;4.640;2023-02-03T11:13:10;102898.75;;;10.69;75.96
67457;BME280;54319;52.038;4.640;2023-02-03T11:15:48;102881.50;;;10.68;76.06
67457;BME280;54319;52.038;4.640;2023-02-03T11:18:39;102869.66;;;10.60;76.06
67457;BME280;54319;52.038;4.640;2023-02-03T11:21:08;102891.91;;;10.65;76.19
67457;BME280;54319;52.038;4.640;2023-02-03T11:23:46;102880.44;;;10.61;76.15
67457;BME280;54319;52.038;4.640;2023-02-03T11:26:17;102873.31;;;10.68;76.31
67457;BME280;54319;52.038;4.640;2023-02-03T11:28:46;102877.34;;;10.56;76.61
67457;BME280;54319;52.038;4.640;2023-02-03T11:31:18;102868.97;;;10.57;76.17
67457;BME280;54319;52.038;4.640;2023-02-03T11:33:49;102878.25;;;10.65;76.31
67457;BME280;54319;52.038;4.640;2023-02-03T11:36:16;102875.47;;;10.56;76.38
67457;BME280;54319;52.038;4.640;2023-02-03T11:38:45;102889.31;;;10.63;76.33
67457;BME280;54319;52.038;4.640;2023-02-03T11:41:17;102869.28;;;10.46;76.62
67457;BME280;54319;52.038;4.640;2023-02-03T11:43:46;102895.22;;;10.50;77.07
67457;BME280;54319;52.038;4.640;2023-02-03T11:46:13;102896.09;;;10.51;77.11
67457;BME280;54319;52.038;4.640;2023-02-03T11:48:53;102873.72;;;10.47;77.36
67457;BME280;54319;52.038;4.640;2023-02-03T11:51:31;102875.91;;;10.44;77.08
67457;BME280;54319;52.038;4.640;2023-02-03T11:54:17;102891.28;;;10.45;76.99
67457;BME280;54319;52.038;4.640;2023-02-03T11:57:04;102882.22;;;10.44;77.34
67457;BME280;54319;52.038;4.640;2023-02-03T11:59:46;102878.47;;;10.45;77.04
67457;BME280;54319;52.038;4.640;2023-02-03T12:02:58;102882.44;;;10.51;77.02
67457;BME280;54319;52.038;4.640;2023-02-03T12:05:52;102879.09;;;10.65;76.88
67457;BME280;54319;52.038;4.640;2023-02-03T12:08:35;102885.75;;;10.63;76.71
67457;BME280;54319;52.038;4.640;2023-02-03T12:11:16;102893.75;;;10.64;76.87
67457;BME280;54319;52.038;4.640;2023-02-03T12:14:05;102883.97;;;10.53;77.19
67457;BME280;54319;52.038;4.640;2023-02-03T12:16:54;102886.13;;;10.68;76.83
67457;BME280;54319;52.038;4.640;2023-02-03T12:19:31;102876.47;;;10.55;76.67
67457;BME280;54319;52.038;4.640;2023-02-03T12:22:15;102891.34;;;10.61;77.25
67457;BME280;54319;52.038;4.640;2023-02-03T12:24:53;102867.94;;;10.50;76.86
67457;BME280;54319;52.038;4.640;2023-02-03T12:27:33;102899.91;;;10.66;76.64
67457;BME280;54319;52.038;4.640;2023-02-03T12:30:08;102901.44;;;10.61;77.28
67457;BME280;54319;52.038;4.640;2023-02-03T12:32:41;102903.84;;;10.64;77.43
67457;BME280;54319;52.038;4.640;2023-02-03T12:35:15;102882.81;;;10.56;77.45
67457;BME280;54319;52.038;4.640;2023-02-03T12:37:54;102894.66;;;10.73;77.20
67457;BME280;54319;52.038;4.640;2023-02-03T12:40:29;102885.44;;;10.66;77.33
67457;BME280;54319;52.038;4.640;2023-02-03T12:43:14;102893.28;;;10.69;77.29
67457;BME280;54319;52.038;4.640;2023-02-03T12:45:50;102886.13;;;10.68;77.06
67457;BME280;54319;52.038;4.640;2023-02-03T12:48:21;102880.78;;;10.58;77.42
67457;BME280;54319;52.038;4.640;2023-02-03T12:50:52;102892.97;;;10.72;77.13
67457;BME280;54319;52.038;4.640;2023-02-03T12:53:23;102899.75;;;10.68;77.29
67457;BME280;54319;52.038;4.640;2023-02-03T12:55:58;102909.47;;;10.70;77.00
67457;BME280;54319;52.038;4.640;2023-02-03T12:58:30;102882.22;;;10.44;77.31
67457;BME280;54319;52.038;4.640;2023-02-03T13:01:02;102902.22;;;10.53;77.79
67457;BME280;54319;52.038;4.640;2023-02-03T13:03:35;102915.69;;;10.54;78.06
67457;BME280;54319;52.038;4.640;2023-02-03T13:06:12;102908.03;;;10.50;77.63
67457;BME280;54319;52.038;4.640;2023-02-03T13:08:46;102915.00;;;10.52;77.96
67457;BME280;54319;52.038;4.640;2023-02-03T13:11:19;102917.44;;;10.37;79.12
67457;BME280;54319;52.038;4.640;2023-02-03T13:13:53;102926.06;;;10.24;80.09
67457;BME280;54319;52.038;4.640;2023-02-03T13:16:24;102929.06;;;10.21;80.75
67457;BME280;54319;52.038;4.640;2023-02-03T13:18:58;102928.69;;;10.16;80.27